sensor_id;sensor_type;location;lat;lon;timestamp;pressure;altitude;pressure_sealevel;temperature;humidity
13015;BME280;6573;57.696;11.950;2023-07-31T00:01:37;100223.38;;;20.16;100.00
13015;BME280;6573;57.696;11.950;2023-07-31T00:04:05;100218.03;;;20.16;100.00
13015;BME280;6573;57.696;11.950;2023-07-31T00:06:33;100217.72;;;20.22;100.00
13015;BME280;6573;57.696;11.950;2023-07-31T00:09:04;100219.00;;;20.32;100.00
13015;BME280;6573;57.696;11.950;2023-07-31T00:11:32;100222.41;;;20.17;100.00
13015;BME280;6573;57.696;11.950;2023-07-31T00:14:01;100216.44;;;20.12;100.00
13015;BME280;6573;57.696;11.950;2023-07-31T00:16:29;100210.97;;;20.15;100.00
13015;BME280;6573;57.696;11.950;2023-07-31T00:18:57;100208.78;;;20.23;100.00
13015;BME280;6573;57.696;11.950;2023-07-31T00:21:25;100194.41;;;20.09;100.00
13015;BME280;6573;57.696;11.950;2023-07-31T00:23:56;100211.47;;;20.23;100.00
13015;BME280;6573;57.696;11.950;2023-07-31T00:26:26;100222.28;;;20.37;100.00
13015;BME280;6573;57.696;11.950;2023-07-31T00:28:54;100212.25;;;20.25;100.00
13015;BME280;6573;57.696;11.950;2023-07-31T00:31:23;100212.84;;;20.13;100.00
13015;BME280;6573;57.696;11.950;2023-07-31T00:33:52;100215.19;;;20.02;100.00
13015;BME280;6573;57.696;11.950;2023-07-31T00:36:20;100211.75;;;20.00;100.00
13015;BME280;6573;57.696;11.950;2023-07-31T00:38:48;100211.94;;;19.97;100.00
13015;BME280;6573;57.696;11.950;2023-07-31T00:41:17;100204.69;;;19.99;100.00
13015;BME280;6573;57.696;11.950;2023-07-31T00:43:46;100199.03;;;20.05;100.00
13015;BME280;6573;57.696;11.950;2023-07-31T00:46:17;100202.81;;;20.01;100.00
13015;BME280;6573;57.696;11.950;2023-07-31T00:48:48;100206.25;;;20.03;100.00
13015;BME280;6573;57.696;11.950;2023-07-31T00:51:20;100202.81;;;20.01;100.00
13015;BME280;6573;57.696;11.950;2023-07-31T00:53:48;100198.72;;;19.94;100.00
13015;BME280;6573;57.696;11.950;2023-07-31T00:56:17;100206.88;;;19.91;100.00
13015;BME280;6573;57.696;11.950;2023-07-31T00:58:47;100203.72;;;19.83;100.00
13015;BME280;6573;57.696;11.950;2023-07-31T01:01:16;100195.56;;;19.86;100.00
13015;BME280;6573;57.696;11.950;2023-07-31T01:03:44;100200.13;;;19.84;100.00
13015;BME280;6573;57.696;11.950;2023-07-31T01:06:17;100196.50;;;19.85;100.00
13015;BME280;6573;57.696;11.950;2023-07-31T01:08:53;100203.59;;;19.86;100.00
13015;BME280;6573;57.696;11.950;2023-07-31T01:11:28;100197.75;;;19.78;100.00
13015;BME280;6573;57.696;11.950;2023-07-31T01:13:59;100194.22;;;19.77;100.00
13015;BME280;6573;57.696;11.950;2023-07-31T01:16:28;100205.31;;;19.87;100.00
13015;BME280;6573;57.696;11.950;2023-07-31T01:18:57;100201.84;;;19.85;100.00
13015;BME280;6573;57.696;11.950;2023-07-31T01:21:41;100193.63;;;19.89;100.00
13015;BME280;6573;57.696;11.950;2023-07-31T01:24:28;100205.47;;;19.84;100.00
13015;BME280;6573;57.696;11.950;2023-07-31T01:27:04;100193.91;;;19.83;100.00
13015;BME280;6573;57.696;11.950;2023-07-31T01:29:40;100192.13;;;19.84;100.00
13015;BME280;6573;57.696;11.950;2023-07-31T01:32:12;100187.72;;;19.83;100.00
13015;BME280;6573;57.696;11.950;2023-07-31T01:34:41;100191.00;;;19.88;100.00
13015;BME280;6573;57.696;11.950;2023-07-31T01:37:12;100187.41;;;19.72;100.00
13015;BME280;6573;57.696;11.950;2023-07-31T01:39:41;100175.72;;;19.38;100.00
13015;BME280;6573;57.696;11.950;2023-07-31T01:42:10;100167.38;;;19.27;100.00
13015;BME280;6573;57.696;11.950;2023-07-31T01:44:39;100166.94;;;19.36;100.00
13015;BME280;6573;57.696;11.950;2023-07-31T01:47:09;100170.25;;;19.42;100.00
13015;BME280;6573;57.696;11.950;2023-07-31T01:49:37;100168.06;;;19.50;100.00
13015;BME280;6573;57.696;11.950;2023-07-31T01:52:07;100172.28;;;19.36;100.00
13015;BME280;6573;57.696;11.950;2023-07-31T01:54:35;100162.50;;;19.35;100.00
13015;BME280;6573;57.696;11.950;2023-07-31T01:57:04;100152.50;;;19.41;100.00
13015;BME280;6573;57.696;11.950;2023-07-31T01:59:35;100162.88;;;19.47;100.00
13015;BME280;6573;57.696;11.950;2023-07-31T02:02:04;100161.00;;;19.49;100.00
13015;BME280;6573;57.696;11.950;2023-07-31T02:04:32;100155.03;;;19.44;100.00
13015;BME280;6573;57.696;11.950;2023-07-31T02:07:01;100149.06;;;19.38;100.00
13015;BME280;6573;57.696;11.950;2023-07-31T02:09:29;100143.72;;;19.38;100.00
13015;BME280;6573;57.696;11.950;2023-07-31T02:11:58;100153.06;;;19.28;100.00
13015;BME280;6573;57.696;11.950;2023-07-31T02:14:27;100146.19;;;19.24;100.00
13015;BME280;6573;57.696;11.950;2023-07-31T02:16:57;100137.22;;;19.25;100.00
13015;BME280;6573;57.696;11.950;2023-07-31T02:19:25;100137.06;;;19.28;100.00
13015;BME280;6573;57.696;11.950;2023-07-31T02:21:53;100145.72;;;19.33;100.00
13015;BME280;6573;57.696;11.950;2023-07-31T02:24:22;100135.38;;;19.27;100.00
13015;BME280;6573;57.696;11.950;2023-07-31T02:26:50;100136.94;;;19.31;100.00
13015;BME280;6573;57.696;11.950;2023-07-31T02:29:19;100140.53;;;19.30;100.00
13015;BME280;6573;57.696;11.950;2023-07-31T02:31:47;100140.84;;;19.24;100.00
13015;BME280;6573;57.696;11.950;2023-07-31T02:34:17;100149.41;;;19.31;100.00
13015;BME280;6573;57.696;11.950;2023-07-31T02:36:46;100147.75;;;19.28;100.00
13015;BME280;6573;57.696;11.950;2023-07-31T02:39:15;100139.09;;;19.23;100.00
13015;BME280;6573;57.696;11.950;2023-07-31T02:41:43;100144.44;;;19.23;100.00
13015;BME280;6573;57.696;11.950;2023-07-31T02:44:12;100142.41;;;19.28;100.00
13015;BME280;6573;57.696;11.950;2023-07-31T02:46:41;100131.88;;;19.25;100.00
13015;BME280;6573;57.696;11.950;2023-07-31T02:49:09;100137.03;;;19.30;100.00
13015;BME280;6573;57.696;11.950;2023-07-31T02:51:39;100137.53;;;19.19;100.00
13015;BME280;6573;57.696;11.950;2023-07-31T02:54:07;100131.75;;;19.28;100.00
13015;BME280;6573;57.696;11.950;2023-07-31T02:56:35;100130.03;;;19.27;100.00
13015;BME280;6573;57.696;11.950;2023-07-31T02:59:04;100137.22;;;19.25;100.00
13015;BME280;6573;57.696;11.950;2023-07-31T03:01:34;100129.84;;;19.30;100.00
13015;BME280;6573;57.696;11.950;2023-07-31T03:04:02;100131.16;;;19.41;100.00
13015;BME280;6573;57.696;11.950;2023-07-31T03:06:30;100129.28;;;19.43;100.00
13015;BME280;6573;57.696;11.950;2023-07-31T03:09:00;100132.91;;;19.42;100.00
13015;BME280;6573;57.696;11.950;2023-07-31T03:11:28;100139.03;;;19.44;100.00
13015;BME280;6573;57.696;11.950;2023-07-31T03:13:57;100130.72;;;19.50;100.00
13015;BME280;6573;57.696;11.950;2023-07-31T03:16:25;100123.50;;;19.52;100.00
13015;BME280;6573;57.696;11.950;2023-07-31T03:18:54;100136.06;;;19.50;100.00
13015;BME280;6573;57.696;11.950;2023-07-31T03:21:23;100127.41;;;19.45;100.00
13015;BME280;6573;57.696;11.950;2023-07-31T03:23:51;100132.75;;;19.45;100.00
13015;BME280;6573;57.696;11.950;2023-07-31T03:26:21;100129.91;;;19.48;100.00
13015;BME280;6573;57.696;11.950;2023-07-31T03:28:49;100123.34;;;19.55;100.00
13015;BME280;6573;57.696;11.950;2023-07-31T03:31:18;100122.09;;;19.62;100.00
13015;BME280;6573;57.696;11.950;2023-07-31T03:33:46;100115.34;;;19.72;100.00
13015;BME280;6573;57.696;11.950;2023-07-31T03:36:14;100117.53;;;19.64;100.00
13015;BME280;6573;57.696;11.950;2023-07-31T03:38:42;100114.38;;;19.56;100.00
13015;BME280;6573;57.696;11.950;2023-07-31T03:41:11;100114.72;;;19.50;100.00
13015;BME280;6573;57.696;11.950;2023-07-31T03:43:41;100121.63;;;19.54;100.00
13015;BME280;6573;57.696;11.950;2023-07-31T03:46:09;100118.78;;;19.40;100.00
13015;BME280;6573;57.696;11.950;2023-07-31T03:48:38;100115.00;;;19.44;100.00
13015;BME280;6573;57.696;11.950;2023-07-31T03:51:07;100118.31;;;19.49;100.00
13015;BME280;6573;57.696;11.950;2023-07-31T03:53:35;100109.19;;;19.53;100.00
13015;BME280;6573;57.696;11.950;2023-07-31T03:56:04;100117.53;;;19.64;100.00
13015;BME280;6573;57.696;11.950;2023-07-31T03:58:32;100118.25;;;19.67;100.00
13015;BME280;6573;57.696;11.950;2023-07-31T04:01:03;100108.19;;;19.72;100.00
13015;BME280;6573;57.696;11.950;2023-07-31T04:03:31;100105.94;;;19.82;100.00
13015;BME280;6573;57.696;11.950;2023-07-31T04:06:00;100107.97;;;19.77;100.00
13015;BME280;6573;57.696;11.950;2023-07-31T04:08:28;100114.16;;;19.77;100.00
13015;BME280;6573;57.696;11.950;2023-07-31T04:10:57;100108.75;;;19.62;100.00
13015;BME280;6573;57.696;11.950;2023-07-31T04:13:25;100118.03;;;19.55;100.00
13015;BME280;6573;57.696;11.950;2023-07-31T04:15:55;100121.06;;;19.47;100.00
13015;BME280;6573;57.696;11.950;2023-07-31T04:18:25;100112.84;;;19.33;100.00
13015;BME280;6573;57.696;11.950;2023-07-31T04:20:54;100110.47;;;19.46;100.00
13015;BME280;6573;57.696;11.950;2023-07-31T04:23:22;100112.09;;;19.48;100.00
13015;BME280;6573;57.696;11.950;2023-07-31T04:25:51;100102.00;;;19.55;100.00
13015;BME280;6573;57.696;11.950;2023-07-31T04:28:19;100105.13;;;19.63;100.00
13015;BME280;6573;57.696;11.950;2023-07-31T04:30:48;100101.69;;;19.61;100.00
13015;BME280;6573;57.696;11.950;2023-07-31T04:33:16;100104.28;;;19.62;100.00
13015;BME280;6573;57.696;11.950;2023-07-31T04:35:50;100105.59;;;19.71;100.00
13015;BME280;6573;57.696;11.950;2023-07-31T04:38:20;100095.16;;;19.66;100.00
13015;BME280;6573;57.696;11.950;2023-07-31T04:40:48;100080.34;;;19.61;100.00
13015;BME280;6573;57.696;11.950;2023-07-31T04:43:17;100088.66;;;19.72;100.00
13015;BME280;6573;57.696;11.950;2023-07-31T04:45:45;100081.09;;;19.80;100.00
13015;BME280;6573;57.696;11.950;2023-07-31T04:48:15;100087.53;;;19.76;100.00
13015;BME280;6573;57.696;11.950;2023-07-31T04:50:43;100078.66;;;19.75;100.00
13015;BME280;6573;57.696;11.950;2023-07-31T04:53:13;100077.19;;;19.87;100.00
13015;BME280;6573;57.696;11.950;2023-07-31T04:55:41;100078.59;;;19.94;100.00
13015;BME280;6573;57.696;11.950;2023-07-31T04:58:09;100085.97;;;19.89;100.00
13015;BME280;6573;57.696;11.950;2023-07-31T05:00:39;100092.72;;;19.96;100.00
13015;BME280;6573;57.696;11.950;2023-07-31T05:03:07;100087.38;;;19.96;100.00
13015;BME280;6573;57.696;11.950;2023-07-31T05:05:37;100088.63;;;20.06;100.00
13015;BME280;6573;57.696;11.950;2023-07-31T05:08:06;100082.94;;;20.12;100.00
13015;BME280;6573;57.696;11.950;2023-07-31T05:10:38;100078.53;;;20.28;100.00
13015;BME280;6573;57.696;11.950;2023-07-31T05:13:09;100084.34;;;20.19;100.00
13015;BME280;6573;57.696;11.950;2023-07-31T05:15:37;100069.50;;;20.14;100.00
13015;BME280;6573;57.696;11.950;2023-07-31T05:18:06;100075.53;;;20.17;100.00
13015;BME280;6573;57.696;11.950;2023-07-31T05:20:37;100068.13;;;20.22;100.00
13015;BME280;6573;57.696;11.950;2023-07-31T05:23:06;100070.53;;;20.11;100.00
13015;BME280;6573;57.696;11.950;2023-07-31T05:25:34;100070.69;;;20.08;100.00
13015;BME280;6573;57.696;11.950;2023-07-31T05:28:04;100071.88;;;20.02;100.00
13015;BME280;6573;57.696;11.950;2023-07-31T05:30:32;100062.16;;;20.01;100.00
13015;BME280;6573;57.696;11.950;2023-07-31T05:33:01;100067.00;;;20.11;100.00
13015;BME280;6573;57.696;11.950;2023-07-31T05:35:29;100057.19;;;20.11;100.00
13015;BME280;6573;57.696;11.950;2023-07-31T05:37:57;100055.75;;;20.21;100.00
13015;BME280;6573;57.696;11.950;2023-07-31T05:40:26;100059.22;;;20.23;100.00
13015;BME280;6573;57.696;11.950;2023-07-31T05:42:54;100055.28;;;20.30;100.00
13015;BME280;6573;57.696;11.950;2023-07-31T05:45:25;100051.81;;;20.28;100.00
13015;BME280;6573;57.696;11.950;2023-07-31T05:47:54;100049.09;;;20.45;100.00
13015;BME280;6573;57.696;11.950;2023-07-31T05:50:22;100043.59;;;20.48;100.00
13015;BME280;6573;57.696;11.950;2023-07-31T05:52:51;100048.41;;;20.57;100.00
13015;BME280;6573;57.696;11.950;2023-07-31T05:55:19;100044.34;;;20.50;100.00
13015;BME280;6573;57.696;11.950;2023-07-31T05:57:47;100044.09;;;20.71;100.00
13015;BME280;6573;57.696;11.950;2023-07-31T06:00:16;100046.34;;;20.94;100.00
13015;BME280;6573;57.696;11.950;2023-07-31T06:02:46;100040.28;;;20.75;100.00
13015;BME280;6573;57.696;11.950;2023-07-31T06:05:15;100047.00;;;20.82;100.00
13015;BME280;6573;57.696;11.950;2023-07-31T06:07:43;100049.09;;;20.77;100.00
13015;BME280;6573;57.696;11.950;2023-07-31T06:10:13;100051.59;;;20.95;100.00
13015;BME280;6573;57.696;11.950;2023-07-31T06:12:42;100057.72;;;21.13;100.00
13015;BME280;6573;57.696;11.950;2023-07-31T06:15:10;100039.09;;;20.80;100.00
13015;BME280;6573;57.696;11.950;2023-07-31T06:17:39;100059.59;;;20.95;100.00
13015;BME280;6573;57.696;11.950;2023-07-31T06:20:09;100054.34;;;20.94;100.00
13015;BME280;6573;57.696;11.950;2023-07-31T06:22:37;100047.03;;;21.13;100.00
13015;BME280;6573;57.696;11.950;2023-07-31T06:25:09;100058.59;;;21.13;100.00
13015;BME280;6573;57.696;11.950;2023-07-31T06:27:41;100048.56;;;21.17;100.00
13015;BME280;6573;57.696;11.950;2023-07-31T06:30:10;100054.91;;;20.99;100.00
13015;BME280;6573;57.696;11.950;2023-07-31T06:32:39;100050.47;;;21.15;100.00
13015;BME280;6573;57.696;11.950;2023-07-31T06:35:12;100049.75;;;21.11;100.00
13015;BME280;6573;57.696;11.950;2023-07-31T06:37:40;100038.03;;;21.14;100.00
13015;BME280;6573;57.696;11.950;2023-07-31T06:40:11;100039.28;;;21.08;100.00
13015;BME280;6573;57.696;11.950;2023-07-31T06:42:39;100038.72;;;21.02;100.00
13015;BME280;6573;57.696;11.950;2023-07-31T06:45:09;100044.44;;;20.96;100.00
13015;BME280;6573;57.696;11.950;2023-07-31T06:47:37;100040.09;;;21.09;100.00
13015;BME280;6573;57.696;11.950;2023-07-31T06:50:07;100045.66;;;21.06;100.00
13015;BME280;6573;57.696;11.950;2023-07-31T06:52:37;100045.66;;;21.06;100.00
13015;BME280;6573;57.696;11.950;2023-07-31T06:55:16;100052.63;;;20.93;100.00
13015;BME280;6573;57.696;11.950;2023-07-31T06:57:45;100044.59;;;20.93;100.00
13015;BME280;6573;57.696;11.950;2023-07-31T07:00:14;100056.31;;;20.75;100.00
13015;BME280;6573;57.696;11.950;2023-07-31T07:02:43;100055.31;;;20.61;100.00
13015;BME280;6573;57.696;11.950;2023-07-31T07:05:11;100056.41;;;20.57;100.00
13015;BME280;6573;57.696;11.950;2023-07-31T07:07:41;100050.31;;;20.55;100.00
13015;BME280;6573;57.696;11.950;2023-07-31T07:10:10;100049.97;;;20.61;100.00
13015;BME280;6573;57.696;11.950;2023-07-31T07:12:38;100051.34;;;20.69;100.00
13015;BME280;6573;57.696;11.950;2023-07-31T07:15:08;100059.44;;;20.67;100.00
13015;BME280;6573;57.696;11.950;2023-07-31T07:17:39;100054.94;;;20.67;100.00
13015;BME280;6573;57.696;11.950;2023-07-31T07:20:08;100059.28;;;20.70;100.00
13015;BME280;6573;57.696;11.950;2023-07-31T07:22:36;100054.63;;;20.58;100.00
13015;BME280;6573;57.696;11.950;2023-07-31T07:25:07;100057.38;;;20.56;100.00
13015;BME280;6573;57.696;11.950;2023-07-31T07:27:35;100052.88;;;20.41;100.00
13015;BME280;6573;57.696;11.950;2023-07-31T07:30:05;100055.44;;;20.27;100.00
13015;BME280;6573;57.696;11.950;2023-07-31T07:32:33;100050.41;;;20.21;100.00
13015;BME280;6573;57.696;11.950;2023-07-31T07:35:02;100045.22;;;20.18;100.00
13015;BME280;6573;57.696;11.950;2023-07-31T07:37:34;100050.41;;;20.21;100.00
13015;BME280;6573;57.696;11.950;2023-07-31T07:40:02;100043.03;;;20.26;100.00
13015;BME280;6573;57.696;11.950;2023-07-31T07:42:32;100042.34;;;20.23;100.00
13015;BME280;6573;57.696;11.950;2023-07-31T07:45:00;100037.53;;;20.29;100.00
13015;BME280;6573;57.696;11.950;2023-07-31T07:47:29;100041.59;;;20.36;100.00
13015;BME280;6573;57.696;11.950;2023-07-31T07:49:58;100038.72;;;20.39;100.00
13015;BME280;6573;57.696;11.950;2023-07-31T07:52:26;100033.06;;;20.45;100.00
13015;BME280;6573;57.696;11.950;2023-07-31T07:54:57;100037.53;;;20.29;100.00
13015;BME280;6573;57.696;11.950;2023-07-31T07:57:25;100030.09;;;20.34;100.00
13015;BME280;6573;57.696;11.950;2023-07-31T07:59:55;100035.28;;;20.37;100.00
13015;BME280;6573;57.696;11.950;2023-07-31T08:02:23;100036.66;;;20.44;100.00
13015;BME280;6573;57.696;11.950;2023-07-31T08:04:52;100036.06;;;20.39;100.00
13015;BME280;6573;57.696;11.950;2023-07-31T08:07:22;100033.38;;;20.39;100.00
13015;BME280;6573;57.696;11.950;2023-07-31T08:09:51;100025.66;;;20.50;100.00
13015;BME280;6573;57.696;11.950;2023-07-31T08:12:19;100035.41;;;20.51;100.00
13015;BME280;6573;57.696;11.950;2023-07-31T08:14:47;100029.25;;;20.49;100.00
13015;BME280;6573;57.696;11.950;2023-07-31T08:17:17;100031.50;;;20.57;100.00
13015;BME280;6573;57.696;11.950;2023-07-31T08:19:49;100033.41;;;20.71;100.00
13015;BME280;6573;57.696;11.950;2023-07-31T08:22:17;100031.59;;;20.55;100.00
13015;BME280;6573;57.696;11.950;2023-07-31T08:24:45;100029.44;;;20.46;100.00
13015;BME280;6573;57.696;11.950;2023-07-31T08:27:14;100024.75;;;20.34;100.00
13015;BME280;6573;57.696;11.950;2023-07-31T08:29:42;100034.97;;;20.59;100.00
13015;BME280;6573;57.696;11.950;2023-07-31T08:32:10;100010.66;;;20.63;100.00
13015;BME280;6573;57.696;11.950;2023-07-31T08:34:40;100028.06;;;20.71;100.00
13015;BME280;6573;57.696;11.950;2023-07-31T08:37:09;100025.81;;;20.79;100.00
13015;BME280;6573;57.696;11.950;2023-07-31T08:39:38;100023.53;;;20.87;100.00
13015;BME280;6573;57.696;11.950;2023-07-31T08:42:08;100026.81;;;20.92;100.00
13015;BME280;6573;57.696;11.950;2023-07-31T08:44:37;100026.31;;;20.85;100.00
13015;BME280;6573;57.696;11.950;2023-07-31T08:47:07;100026.16;;;20.73;100.00
13015;BME280;6573;57.696;11.950;2023-07-31T08:49:37;100019.69;;;20.77;100.00
13015;BME280;6573;57.696;11.950;2023-07-31T08:52:08;100022.56;;;20.74;100.00
13015;BME280;6573;57.696;11.950;2023-07-31T08:54:37;100014.69;;;20.86;100.00
13015;BME280;6573;57.696;11.950;2023-07-31T08:57:05;100025.13;;;20.91;100.00
13015;BME280;6573;57.696;11.950;2023-07-31T08:59:35;100022.00;;;20.83;100.00
13015;BME280;6573;57.696;11.950;2023-07-31T09:02:08;100012.50;;;20.93;100.00
13015;BME280;6573;57.696;11.950;2023-07-31T09:04:37;100020.47;;;20.79;100.00
13015;BME280;6573;57.696;11.950;2023-07-31T09:07:09;100013.41;;;20.78;100.00
13015;BME280;6573;57.696;11.950;2023-07-31T09:09:40;100015.13;;;20.79;100.00
13015;BME280;6573;57.696;11.950;2023-07-31T09:12:08;100015.03;;;20.80;100.00
13015;BME280;6573;57.696;11.950;2023-07-31T09:14:40;100011.50;;;20.80;100.00
13015;BME280;6573;57.696;11.950;2023-07-31T09:17:10;100008.59;;;20.69;100.00
13015;BME280;6573;57.696;11.950;2023-07-31T09:19:39;100002.69;;;20.62;100.00
13015;BME280;6573;57.696;11.950;2023-07-31T09:22:09;100008.75;;;20.65;100.00
13015;BME280;6573;57.696;11.950;2023-07-31T09:24:40;100012.69;;;20.90;100.00
13015;BME280;6573;57.696;11.950;2023-07-31T09:27:09;100017.47;;;20.99;100.00
13015;BME280;6573;57.696;11.950;2023-07-31T09:29:37;100013.56;;;21.06;100.00
13015;BME280;6573;57.696;11.950;2023-07-31T09:32:15;100009.91;;;21.07;100.00
13015;BME280;6573;57.696;11.950;2023-07-31T09:34:44;100007.72;;;20.84;100.00
13015;BME280;6573;57.696;11.950;2023-07-31T09:37:14;100005.44;;;20.92;100.00
13015;BME280;6573;57.696;11.950;2023-07-31T09:39:47;100005.09;;;20.98;100.00
13015;BME280;6573;57.696;11.950;2023-07-31T09:42:25;100011.28;;;21.14;100.00
13015;BME280;6573;57.696;11.950;2023-07-31T09:45:07;100008.44;;;21.17;100.00
13015;BME280;6573;57.696;11.950;2023-07-31T09:47:35;100010.59;;;21.26;100.00
13015;BME280;6573;57.696;11.950;2023-07-31T09:50:07;100008.84;;;21.25;100.00
13015;BME280;6573;57.696;11.950;2023-07-31T09:52:38;100013.19;;;21.12;100.00
13015;BME280;6573;57.696;11.950;2023-07-31T09:55:07;100006.13;;;21.11;100.00
13015;BME280;6573;57.696;11.950;2023-07-31T09:57:39;100009.91;;;21.07;100.00
13015;BME280;6573;57.696;11.950;2023-07-31T10:00:09;100008.22;;;21.06;100.00
13015;BME280;6573;57.696;11.950;2023-07-31T10:02:39;100005.75;;;21.17;100.00
13015;BME280;6573;57.696;11.950;2023-07-31T10:05:08;100002.00;;;21.35;100.00
13015;BME280;6573;57.696;11.950;2023-07-31T10:07:38;99996.25;;;21.41;100.00
13015;BME280;6573;57.696;11.950;2023-07-31T10:10:09;100001.97;;;21.21;100.00
13015;BME280;6573;57.696;11.950;2023-07-31T10:12:38;99995.13;;;21.45;100.00
13015;BME280;6573;57.696;11.950;2023-07-31T10:15:08;100007.19;;;21.52;100.00
13015;BME280;6573;57.696;11.950;2023-07-31T10:17:37;99998.56;;;21.47;100.00
13015;BME280;6573;57.696;11.950;2023-07-31T10:20:10;100011.97;;;21.61;100.00
13015;BME280;6573;57.696;11.950;2023-07-31T10:22:41;99998.22;;;21.53;100.00
13015;BME280;6573;57.696;11.950;2023-07-31T10:25:09;99993.59;;;21.41;100.00
13015;BME280;6573;57.696;11.950;2023-07-31T10:27:42;100001.97;;;21.65;100.00
13015;BME280;6573;57.696;11.950;2023-07-31T10:30:15;100002.25;;;21.60;100.00
13015;BME280;6573;57.696;11.950;2023-07-31T10:32:46;99995.16;;;21.59;100.00
13015;BME280;6573;57.696;11.950;2023-07-31T10:35:17;99995.13;;;21.45;100.00
13015;BME280;6573;57.696;11.950;2023-07-31T10:37:47;99988.84;;;21.60;100.00
13015;BME280;6573;57.696;11.950;2023-07-31T10:40:16;99977.41;;;21.72;100.00
13015;BME280;6573;57.696;11.950;2023-07-31T10:42:47;99982.75;;;21.72;100.00
13015;BME280;6573;57.696;11.950;2023-07-31T10:45:25;99975.88;;;21.82;100.00
13015;BME280;6573;57.696;11.950;2023-07-31T10:48:01;99972.28;;;21.98;100.00
13015;BME280;6573;57.696;11.950;2023-07-31T10:50:31;99968.69;;;22.11;100.00
13015;BME280;6573;57.696;11.950;2023-07-31T10:53:02;99973.41;;;22.08;100.00
13015;BME280;6573;57.696;11.950;2023-07-31T10:55:32;99965.53;;;21.76;100.00
13015;BME280;6573;57.696;11.950;2023-07-31T10:58:09;99972.63;;;22.20;100.00
13015;BME280;6573;57.696;11.950;2023-07-31T11:00:38;99965.00;;;22.54;100.00
13015;BME280;6573;57.696;11.950;2023-07-31T11:03:09;99966.06;;;22.52;100.00
13015;BME280;6573;57.696;11.950;2023-07-31T11:05:44;99962.59;;;22.64;100.00
13015;BME280;6573;57.696;11.950;2023-07-31T11:08:17;99965.00;;;22.81;100.00
13015;BME280;6573;57.696;11.950;2023-07-31T11:10:47;99960.97;;;22.88;100.00
13015;BME280;6573;57.696;11.950;2023-07-31T11:13:17;99943.63;;;23.06;100.00
13015;BME280;6573;57.696;11.950;2023-07-31T11:15:45;99948.13;;;23.06;100.00
13015;BME280;6573;57.696;11.950;2023-07-31T11:18:13;99951.97;;;22.89;100.00
13015;BME280;6573;57.696;11.950;2023-07-31T11:20:43;99939.97;;;23.07;100.00
13015;BME280;6573;57.696;11.950;2023-07-31T11:23:12;99947.41;;;23.16;100.00
13015;BME280;6573;57.696;11.950;2023-07-31T11:25:42;99951.34;;;22.98;100.00
13015;BME280;6573;57.696;11.950;2023-07-31T11:28:13;99950.94;;;23.04;100.00
13015;BME280;6573;57.696;11.950;2023-07-31T11:30:43;99951.53;;;22.95;100.00
13015;BME280;6573;57.696;11.950;2023-07-31T11:33:13;99941.03;;;23.05;100.00
13015;BME280;6573;57.696;11.950;2023-07-31T11:35:43;99941.53;;;23.24;100.00
13015;BME280;6573;57.696;11.950;2023-07-31T11:38:14;99938.91;;;23.10;100.00
13015;BME280;6573;57.696;11.950;2023-07-31T11:40:50;99940.22;;;23.30;100.00
13015;BME280;6573;57.696;11.950;2023-07-31T11:43:19;99940.47;;;23.77;100.00
13015;BME280;6573;57.696;11.950;2023-07-31T11:45:49;99934.22;;;23.89;100.00
13015;BME280;6573;57.696;11.950;2023-07-31T11:48:20;99942.00;;;23.81;100.00
13015;BME280;6573;57.696;11.950;2023-07-31T11:50:53;99931.47;;;23.78;100.00
13015;BME280;6573;57.696;11.950;2023-07-31T11:53:25;99937.69;;;23.91;100.00
13015;BME280;6573;57.696;11.950;2023-07-31T11:56:00;99936.84;;;23.78;100.00
13015;BME280;6573;57.696;11.950;2023-07-31T11:58:30;99940.06;;;23.83;100.00
13015;BME280;6573;57.696;11.950;2023-07-31T12:01:00;99940.06;;;23.83;100.00
13015;BME280;6573;57.696;11.950;2023-07-31T12:03:28;99928.44;;;23.70;100.00
13015;BME280;6573;57.696;11.950;2023-07-31T12:06:00;99935.34;;;23.74;100.00
13015;BME280;6573;57.696;11.950;2023-07-31T12:08:29;99930.19;;;23.71;100.00
13015;BME280;6573;57.696;11.950;2023-07-31T12:11:04;99928.44;;;23.70;100.00
13015;BME280;6573;57.696;11.950;2023-07-31T12:13:35;99933.19;;;23.54;100.00
13015;BME280;6573;57.696;11.950;2023-07-31T12:16:04;99925.69;;;23.59;100.00
13015;BME280;6573;57.696;11.950;2023-07-31T12:18:34;99924.81;;;23.58;100.00
13015;BME280;6573;57.696;11.950;2023-07-31T12:21:05;99912.00;;;23.62;100.00
13015;BME280;6573;57.696;11.950;2023-07-31T12:23:36;99917.28;;;23.76;100.00
13015;BME280;6573;57.696;11.950;2023-07-31T12:26:08;99905.44;;;23.91;100.00
13015;BME280;6573;57.696;11.950;2023-07-31T12:28:37;99916.63;;;23.85;100.00
13015;BME280;6573;57.696;11.950;2023-07-31T12:31:11;99917.47;;;23.98;100.00
13015;BME280;6573;57.696;11.950;2023-07-31T12:33:44;99916.38;;;24.13;100.00
13015;BME280;6573;57.696;11.950;2023-07-31T12:36:14;99920.03;;;24.12;100.00
13015;BME280;6573;57.696;11.950;2023-07-31T12:38:43;99921.22;;;23.96;100.00
13015;BME280;6573;57.696;11.950;2023-07-31T12:41:13;99911.75;;;24.15;100.00
13015;BME280;6573;57.696;11.950;2023-07-31T12:43:44;99900.41;;;24.35;100.00
13015;BME280;6573;57.696;11.950;2023-07-31T12:46:12;99913.31;;;24.30;100.00
13015;BME280;6573;57.696;11.950;2023-07-31T12:48:42;99917.00;;;24.04;100.00
13015;BME280;6573;57.696;11.950;2023-07-31T12:51:10;99918.94;;;24.02;100.00
13015;BME280;6573;57.696;11.950;2023-07-31T12:53:39;99913.78;;;23.99;100.00
13015;BME280;6573;57.696;11.950;2023-07-31T12:56:07;99905.19;;;24.19;100.00